Weather reports worldwide

Advertisment
Monte Settepani, Italy (16111): temperature & dewpoint: 23.10.2020 11:00:00 - 29.10.2020 11:00:00 (CET)Monte Settepani, Italy (16111): wind speed: 23.10.2020 11:00:00 - 29.10.2020 11:00:00 (CET)Monte Settepani, Italy (16111): wind direction: 23.10.2020 11:00:00 - 29.10.2020 11:00:00 (CET)Monte Settepani, Italy (16111): precipitation: 23.10.2020 11:00:00 - 29.10.2020 11:00:00 (CET)
Date & Time tt [°C] td [°C] ff [km/h] ff [kn] dd rr [mm]
29.10.2020 11:00:00 10,7 9,1 9 5 N -
29.10.2020 10:00:00 9,4 9,4 5 3 N -
29.10.2020 09:00:00 8,0 8,0 4 2 N -
29.10.2020 08:00:00 8,3 8,3 9 5 N -
29.10.2020 07:00:00 5,5 5,5 8 4 WNW 0,0
29.10.2020 06:00:00 6,2 6,2 5 3 ESE -
29.10.2020 05:00:00 6,1 6,1 5 3 ENE -
29.10.2020 04:00:00 5,6 5,6 8 4 NE -
29.10.2020 03:00:00 5,5 5,5 4 2 S -
29.10.2020 02:00:00 5,3 5,3 9 5 S -
29.10.2020 01:00:00 5,5 5,5 13 7 SSW 0,0
29.10.2020 00:00:00 5,5 5,5 9 5 SSW -
28.10.2020 23:00:00 5,8 5,8 8 4 S -
28.10.2020 22:00:00 6,0 6,0 8 4 SSW -
28.10.2020 21:00:00 6,0 6,0 9 5 S -
28.10.2020 20:00:00 5,9 5,9 11 6 S -
28.10.2020 19:00:00 6,0 6,0 11 6 S 0,0
28.10.2020 18:00:00 6,2 6,2 15 8 S -
28.10.2020 17:00:00 6,3 6,3 16 9 S -
28.10.2020 16:00:00 6,4 6,4 15 8 S -
28.10.2020 15:00:00 6,3 6,3 13 7 S -
28.10.2020 14:00:00 6,2 6,2 22 12 S -
28.10.2020 13:00:00 6,2 6,2 18 10 S -
28.10.2020 12:00:00 6,8 6,8 15 8 SSW -
28.10.2020 11:00:00 5,9 5,9 16 9 SSW -
28.10.2020 10:00:00 5,7 5,7 16 9 SSW -
28.10.2020 09:00:00 5,4 5,0 16 9 SSW -
28.10.2020 08:00:00 4,7 3,3 18 10 SSW -
28.10.2020 07:00:00 5,2 2,7 13 7 S 0,0
28.10.2020 06:00:00 5,3 3,8 9 5 S -
28.10.2020 05:00:00 5,5 4,0 2 1 SSE -
28.10.2020 04:00:00 5,5 4,1 2 1 ENE -
28.10.2020 03:00:00 4,7 2,9 5 3 N -
28.10.2020 02:00:00 4,9 3,5 5 3 N -
28.10.2020 01:00:00 4,5 3,5 4 2 NNE 0,0
28.10.2020 00:00:00 4,2 2,8 8 4 N -
27.10.2020 23:00:00 4,2 1,2 8 4 N -
27.10.2020 22:00:00 4,2 0,5 5 3 N -
27.10.2020 21:00:00 4,5 0,0 5 3 N -
27.10.2020 20:00:00 5,2 1,6 2 1 NE -
27.10.2020 19:00:00 4,9 2,6 5 3 NE 0,0
27.10.2020 18:00:00 4,9 2,7 5 3 NNE -
27.10.2020 17:00:00 5,5 5,5 4 2 N -
27.10.2020 16:00:00 6,2 6,2 4 2 E -
27.10.2020 15:00:00 6,3 5,2 5 3 NNE -
27.10.2020 14:00:00 6,6 6,0 4 2 E -
27.10.2020 13:00:00 6,6 5,2 2 1 NE 0,0
27.10.2020 12:00:00 9,0 3,1 2 1 NNE -
27.10.2020 11:00:00 7,9 2,7 4 2 NW -
27.10.2020 10:00:00 6,9 5,5 4 2 WSW -
27.10.2020 09:00:00 4,4 3,7 13 7 SSW -
27.10.2020 08:00:00 1,7 1,7 13 7 N -
27.10.2020 07:00:00 1,2 1,2 21 11 N 0,0
27.10.2020 06:00:00 1,5 1,5 24 13 N -
27.10.2020 05:00:00 1,1 1,1 29 16 N -
27.10.2020 04:00:00 1,2 1,2 31 17 N -
27.10.2020 03:00:00 1,7 1,7 31 17 N -
27.10.2020 02:00:00 3,0 3,0 28 15 N -
27.10.2020 01:00:00 2,8 2,8 26 14 N 0,0
27.10.2020 00:00:00 3,8 3,8 9 5 SSE -
26.10.2020 23:00:00 4,2 4,2 11 6 SW -
26.10.2020 22:00:00 4,6 4,6 16 9 S -
26.10.2020 21:00:00 4,6 4,6 18 10 SSW -
26.10.2020 20:00:00 5,4 5,4 15 8 SSW -
26.10.2020 19:00:00 5,9 5,9 15 8 SSW -
26.10.2020 18:00:00 5,4 5,4 21 11 S -
26.10.2020 17:00:00 6,7 6,7 22 12 S -
26.10.2020 16:00:00 8,1 8,1 13 7 S -
26.10.2020 15:00:00 8,2 8,2 5 3 SSW -
26.10.2020 14:00:00 8,8 8,8 9 5 SSW -
26.10.2020 13:00:00 8,8 8,8 15 8 SW -
26.10.2020 12:00:00 8,8 8,8 22 12 SSW -
26.10.2020 11:00:00 8,8 8,8 29 16 SSW -
26.10.2020 10:00:00 9,1 9,1 29 16 SSW -
26.10.2020 09:00:00 8,5 8,5 44 24 SSW -
26.10.2020 08:00:00 8,3 8,3 29 16 SSW -
26.10.2020 07:00:00 7,7 7,7 34 18 SSW -
26.10.2020 06:00:00 7,4 7,4 28 15 SSW -
26.10.2020 05:00:00 7,2 7,2 28 15 SSW -
26.10.2020 04:00:00 7,1 7,1 35 19 SSW -
26.10.2020 03:00:00 7,3 7,3 26 14 SSW -
26.10.2020 02:00:00 7,4 7,4 28 15 SW -
26.10.2020 01:00:00 7,5 7,5 31 17 SSW 0,0
26.10.2020 00:00:00 6,8 6,8 26 14 SW -
25.10.2020 23:00:00 6,7 6,7 24 13 SW -
25.10.2020 22:00:00 7,8 7,8 24 13 SW -
25.10.2020 21:00:00 8,1 8,1 22 12 SSW -
25.10.2020 20:00:00 8,1 8,1 18 10 SSW -
25.10.2020 19:00:00 7,8 7,8 13 7 WSW 0,0
25.10.2020 18:00:00 7,8 7,8 13 7 SSE -
25.10.2020 17:00:00 7,9 7,9 16 9 SSW -
25.10.2020 16:00:00 8,1 8,1 11 6 SSW -
25.10.2020 15:00:00 8,2 8,2 18 10 SSW -
25.10.2020 14:00:00 7,9 7,9 15 8 SSW -
25.10.2020 13:00:00 7,8 7,8 11 6 S 0,0
25.10.2020 12:00:00 7,8 7,8 15 8 S -
25.10.2020 11:00:00 7,9 7,9 13 7 S -
25.10.2020 10:00:00 7,4 7,4 13 7 S -
25.10.2020 09:00:00 7,3 7,3 11 6 S -
25.10.2020 08:00:00 7,0 7,0 11 6 SSW -
25.10.2020 07:00:00 6,8 6,8 16 9 S 0,0
25.10.2020 06:00:00 7,0 7,0 16 9 SSW -
25.10.2020 05:00:00 7,2 7,2 15 8 SSW -
25.10.2020 04:00:00 7,4 7,4 13 7 S -
25.10.2020 03:00:00 7,6 7,6 13 7 S -
25.10.2020 02:00:00 7,1 7,1 16 9 SSW -
25.10.2020 01:00:00 - - - - - -
25.10.2020 00:00:00 8,9 8,1 15 8 SSW -
24.10.2020 23:00:00 8,9 8,6 13 7 SSW -
24.10.2020 22:00:00 8,9 8,7 9 5 SSW -
24.10.2020 21:00:00 9,8 6,5 5 3 SW -
24.10.2020 20:00:00 8,9 6,8 8 4 WSW -
24.10.2020 19:00:00 9,4 7,1 5 3 WNW 0,0
24.10.2020 18:00:00 9,0 7,9 13 7 N -
24.10.2020 17:00:00 9,6 9,6 9 5 NNW -
24.10.2020 16:00:00 10,5 10,5 5 3 NNW -
24.10.2020 15:00:00 10,6 10,6 4 2 NNW -
24.10.2020 14:00:00 10,0 10,0 4 2 NNE -
24.10.2020 13:00:00 10,2 10,2 8 4 NNW -
24.10.2020 12:00:00 8,7 8,7 11 6 NNW -
24.10.2020 11:00:00 8,1 8,1 5 3 N -
24.10.2020 10:00:00 7,2 7,2 9 5 NW -
24.10.2020 09:00:00 6,3 6,3 15 8 NW -
24.10.2020 08:00:00 6,2 6,2 11 6 N -
24.10.2020 07:00:00 5,9 5,9 9 5 WNW 0,0
24.10.2020 06:00:00 6,5 6,5 8 4 W -
24.10.2020 05:00:00 7,6 7,6 4 2 SSW -
24.10.2020 04:00:00 7,9 7,9 9 5 SSW -
24.10.2020 03:00:00 8,0 8,0 16 9 S -
24.10.2020 02:00:00 7,5 7,5 11 6 SSW -
24.10.2020 01:00:00 8,0 8,0 15 8 SSW 0,0
24.10.2020 00:00:00 7,9 7,9 13 7 SSW -
23.10.2020 23:00:00 8,3 8,3 9 5 SW -
23.10.2020 22:00:00 9,1 9,1 11 6 SW -
23.10.2020 21:00:00 9,0 9,0 16 9 SSW -
23.10.2020 20:00:00 8,9 8,9 15 8 SSW -
23.10.2020 19:00:00 8,7 8,7 16 9 SSW -
23.10.2020 18:00:00 9,2 9,2 24 13 SSW -
23.10.2020 17:00:00 9,3 9,3 21 11 SW -
23.10.2020 16:00:00 9,1 9,1 28 15 SSW -
23.10.2020 15:00:00 9,3 9,3 21 11 SSW -
23.10.2020 14:00:00 9,4 9,4 28 15 SSW -
23.10.2020 13:00:00 9,4 9,4 24 13 SSW -
23.10.2020 12:00:00 9,5 9,5 21 11 SSW -
23.10.2020 11:00:00 9,5 9,5 21 11 S -

tt = temperature
td = dewpoint
ff = wind speed
dd = wind direction
rr = precipitation

Next stations